createdAt,value
2022-11-07T00:04:47.050Z,8.46
2022-11-07T00:09:38.796Z,7.49
2022-11-07T00:14:31.351Z,7.23
2022-11-07T00:19:23.019Z,9.17
2022-11-07T00:24:18.050Z,7.38
2022-11-07T00:29:14.298Z,8.30
2022-11-07T00:34:06.200Z,7.05
2022-11-07T00:38:58.092Z,7.93
2022-11-07T00:43:49.926Z,7.16
2022-11-07T00:48:41.839Z,7.15
2022-11-07T00:53:33.765Z,8.28
2022-11-07T00:58:25.425Z,6.52
2022-11-07T01:03:36.404Z,8.08
2022-11-07T01:08:28.621Z,9.03
2022-11-07T01:13:20.381Z,8.64
2022-11-07T01:18:12.205Z,8.71
2022-11-07T01:23:03.980Z,7.96
2022-11-07T01:27:55.599Z,8.90
2022-11-07T01:32:47.217Z,8.18
2022-11-07T01:37:38.781Z,9.48
2022-11-07T01:42:31.328Z,9.55
2022-11-07T01:47:27.051Z,8.82
2022-11-07T01:52:28.340Z,8.43
2022-11-07T01:57:33.294Z,9.48
2022-11-07T02:02:27.669Z,9.41
2022-11-07T02:07:22.387Z,9.30
2022-11-07T02:12:15.110Z,8.45
2022-11-07T02:17:07.408Z,8.23
2022-11-07T02:22:07.678Z,7.90
2022-11-07T02:27:03.588Z,8.41
2022-11-07T02:32:07.575Z,8.74
2022-11-07T02:37:00.793Z,7.15
2022-11-07T02:41:54.555Z,7.28
2022-11-07T02:46:46.938Z,9.01
2022-11-07T02:51:40.530Z,8.92
2022-11-07T02:56:33.474Z,8.56
2022-11-07T03:01:25.352Z,8.31
2022-11-07T03:06:20.348Z,8.92
2022-11-07T03:11:13.727Z,7.93
2022-11-07T03:16:06.870Z,6.54
2022-11-07T03:20:58.542Z,8.93
2022-11-07T03:25:50.137Z,8.70
2022-11-07T03:30:41.824Z,6.87
2022-11-07T03:35:33.429Z,6.88
2022-11-07T03:40:25.930Z,7.09
2022-11-07T03:45:17.729Z,6.44
2022-11-07T03:50:14.138Z,6.47
2022-11-07T03:55:06.352Z,7.95
2022-11-07T03:59:59.731Z,6.85
2022-11-07T04:04:51.363Z,5.71
2022-11-07T04:09:42.948Z,8.79
2022-11-07T04:14:53.548Z,6.94
2022-11-07T04:19:55.975Z,8.53
2022-11-07T04:24:47.670Z,5.16
2022-11-07T04:29:39.862Z,7.52
2022-11-07T04:34:31.545Z,8.25
2022-11-07T04:39:23.447Z,7.30
2022-11-07T04:44:15.075Z,7.51
2022-11-07T04:49:07.676Z,8.41
2022-11-07T04:53:59.342Z,6.10
2022-11-07T04:58:52.057Z,8.16
2022-11-07T05:03:43.611Z,6.36
2022-11-07T05:08:35.916Z,7.41
2022-11-07T05:13:27.543Z,8.03
2022-11-07T05:18:21.258Z,7.29
2022-11-07T05:23:13.735Z,8.81
2022-11-07T05:28:06.669Z,7.37
2022-11-07T05:32:58.353Z,8.20
2022-11-07T05:37:50.854Z,9.37
2022-11-07T05:42:42.502Z,9.38
2022-11-07T05:47:34.145Z,8.65
2022-11-07T05:52:25.715Z,9.76
2022-11-07T05:57:17.921Z,8.27
2022-11-07T06:02:09.639Z,9.09
2022-11-07T06:07:02.967Z,9.74
2022-11-07T06:11:54.752Z,10.65
2022-11-07T06:16:47.256Z,9.66
2022-11-07T06:21:38.847Z,10.27
2022-11-07T06:26:30.614Z,10.39
2022-11-07T06:31:22.260Z,10.16
2022-11-07T06:36:14.757Z,10.72
2022-11-07T06:41:08.679Z,10.63
2022-11-07T06:46:03.890Z,10.30
2022-11-07T06:51:00.536Z,9.26
2022-11-07T06:55:52.533Z,10.89
2022-11-07T07:00:44.277Z,10.68
2022-11-07T07:05:35.992Z,10.63
2022-11-07T07:10:27.586Z,9.56
2022-11-07T07:15:20.369Z,10.60
2022-11-07T07:20:12.232Z,11.94
2022-11-07T07:25:03.965Z,10.79
2022-11-07T07:29:55.569Z,11.38
2022-11-07T07:34:47.479Z,10.40
2022-11-07T07:39:39.131Z,10.98
2022-11-07T07:44:31.488Z,10.89
2022-11-07T07:49:23.058Z,9.08
2022-11-07T07:54:15.481Z,11.28
2022-11-07T07:59:07.640Z,11.32
2022-11-07T08:04:02.090Z,12.30
2022-11-07T08:08:54.276Z,12.03
2022-11-07T08:13:46.016Z,12.92
2022-11-07T08:18:40.808Z,11.62
2022-11-07T08:23:34.493Z,11.28
2022-11-07T08:28:28.798Z,12.47
2022-11-07T08:33:20.984Z,11.36
2022-11-07T08:38:12.626Z,12.16
2022-11-07T08:43:04.383Z,13.33
2022-11-07T08:47:58.055Z,11.59
2022-11-07T08:52:49.685Z,12.78
2022-11-07T08:57:41.314Z,11.01
2022-11-07T09:03:18.417Z,13.65
2022-11-07T09:07:44.597Z,13.28
2022-11-07T09:12:36.236Z,14.08
2022-11-07T09:17:28.058Z,11.77
2022-11-07T09:22:19.909Z,13.84
2022-11-07T09:27:11.526Z,13.37
2022-11-07T09:32:17.491Z,13.70
2022-11-07T09:37:15.526Z,12.91
2022-11-07T09:42:24.726Z,14.60
2022-11-07T09:47:38.460Z,14.65
2022-11-07T09:52:52.653Z,14.78
2022-11-07T09:57:45.593Z,14.81
2022-11-07T10:02:43.929Z,13.18
2022-11-07T10:07:38.538Z,14.66
2022-11-07T10:12:30.076Z,14.71
2022-11-07T10:17:55.518Z,14.73
2022-11-07T10:23:21.602Z,15.09
2022-11-07T10:28:18.963Z,13.22
2022-11-07T10:33:41.756Z,14.06
2022-11-07T10:38:35.496Z,15.70
2022-11-07T10:43:35.210Z,16.13
2022-11-07T10:48:29.477Z,16.67
2022-11-07T10:53:22.947Z,17.04
2022-11-07T10:58:21.923Z,16.74
2022-11-07T11:03:41.907Z,15.46
2022-11-07T11:08:37.693Z,16.41
2022-11-07T11:13:32.053Z,16.97
2022-11-07T11:18:23.902Z,16.19
2022-11-07T11:23:22.253Z,15.77
2022-11-07T11:28:22.439Z,13.71
2022-11-07T11:33:25.371Z,13.16
2022-11-07T11:38:28.275Z,15.41
2022-11-07T11:43:23.147Z,15.12
2022-11-07T11:48:27.803Z,15.54
2022-11-07T11:53:21.891Z,16.64
2022-11-07T11:58:47.522Z,15.75
2022-11-07T12:04:05.493Z,15.26
2022-11-07T12:09:19.566Z,14.12
2022-11-07T12:14:23.386Z,16.90
2022-11-07T12:19:21.823Z,16.26
2022-11-07T12:24:49.001Z,16.73
2022-11-07T12:30:06.140Z,16.83
2022-11-07T12:35:23.066Z,16.62
2022-11-07T12:40:17.761Z,16.46
2022-11-07T12:45:18.575Z,16.44
2022-11-07T12:50:40.286Z,16.51
2022-11-07T12:55:57.515Z,15.66
2022-11-07T13:00:51.087Z,16.72
2022-11-07T13:05:48.982Z,14.38
2022-11-07T13:10:56.612Z,14.85
2022-11-07T13:16:14.177Z,14.77
2022-11-07T13:21:02.557Z,15.70
2022-11-07T13:26:07.031Z,16.48
2022-11-07T13:31:07.676Z,16.46
2022-11-07T13:36:15.711Z,15.52
2022-11-07T13:41:08.217Z,15.51
2022-11-07T13:46:06.872Z,15.79
2022-11-07T13:51:06.123Z,16.04
2022-11-07T13:56:03.482Z,14.43
2022-11-07T14:00:55.331Z,14.92
2022-11-07T14:05:47.862Z,12.68
2022-11-07T14:10:41.942Z,15.84
2022-11-07T14:15:35.302Z,15.03
2022-11-07T14:20:26.999Z,15.64
2022-11-07T14:25:33.272Z,15.56
2022-11-07T14:30:27.479Z,12.00
2022-11-07T14:35:24.021Z,13.71
2022-11-07T14:40:15.773Z,13.36
2022-11-07T14:45:08.354Z,14.92
2022-11-07T14:50:01.890Z,12.94
2022-11-07T14:55:03.031Z,13.25
2022-11-07T14:59:54.881Z,12.07
2022-11-07T15:04:47.999Z,14.41
2022-11-07T15:09:40.896Z,13.78
2022-11-07T15:14:35.977Z,12.17
2022-11-07T15:19:27.708Z,14.60
2022-11-07T15:24:32.863Z,14.95
2022-11-07T15:29:24.545Z,13.24
2022-11-07T15:34:29.037Z,13.18
2022-11-07T15:39:30.011Z,13.06
2022-11-07T15:44:21.720Z,14.48
2022-11-07T15:49:14.703Z,12.30
2022-11-07T15:54:12.859Z,11.78
2022-11-07T15:59:06.085Z,10.83
2022-11-07T16:03:57.656Z,13.61
2022-11-07T16:08:49.550Z,13.20
2022-11-07T16:13:41.399Z,12.36
2022-11-07T16:18:41.699Z,12.45
2022-11-07T16:23:33.384Z,13.53
2022-11-07T16:28:33.734Z,13.99
2022-11-07T16:33:26.142Z,13.05
2022-11-07T16:38:20.386Z,13.96
2022-11-07T16:43:12.635Z,12.62
2022-11-07T16:48:05.122Z,13.41
2022-11-07T16:52:56.730Z,11.49
2022-11-07T16:57:48.417Z,11.89
2022-11-07T17:02:40.071Z,12.19
2022-11-07T17:07:31.782Z,11.34
2022-11-07T17:12:23.645Z,11.22
2022-11-07T17:17:17.728Z,12.30
2022-11-07T17:22:11.032Z,13.54
2022-11-07T17:27:03.885Z,12.68
2022-11-07T17:31:55.529Z,11.01
2022-11-07T17:36:50.513Z,11.52
2022-11-07T17:41:43.747Z,13.36
2022-11-07T17:46:37.238Z,11.24
2022-11-07T17:51:29.036Z,12.99
2022-11-07T17:56:24.956Z,12.87
2022-11-07T18:01:23.320Z,12.96
2022-11-07T18:06:15.297Z,11.83
2022-11-07T18:11:07.148Z,12.71
2022-11-07T18:15:59.640Z,11.10
2022-11-07T18:20:51.349Z,11.55
2022-11-07T18:25:43.720Z,10.33
2022-11-07T18:30:36.557Z,11.63
2022-11-07T18:35:28.376Z,11.91
2022-11-07T18:40:21.088Z,10.41
2022-11-07T18:45:13.585Z,13.36
2022-11-07T18:50:06.837Z,12.93
2022-11-07T18:54:58.543Z,12.33
2022-11-07T18:59:50.242Z,12.56
2022-11-07T19:04:43.936Z,10.98
2022-11-07T19:09:36.798Z,11.32
2022-11-07T19:14:31.476Z,12.30
2022-11-07T19:19:23.727Z,11.00
2022-11-07T19:24:16.708Z,12.40
2022-11-07T19:29:12.405Z,13.16
2022-11-07T19:34:04.979Z,10.86
2022-11-07T19:38:56.583Z,11.33
2022-11-07T19:43:50.119Z,12.25
2022-11-07T19:48:42.705Z,10.81
2022-11-07T19:53:34.477Z,10.31
2022-11-07T19:58:26.103Z,11.72
2022-11-07T20:03:18.207Z,12.11
2022-11-07T20:08:10.094Z,11.77
2022-11-07T20:13:01.760Z,11.19
2022-11-07T20:17:53.341Z,11.01
2022-11-07T20:22:47.571Z,10.27
2022-11-07T20:27:39.271Z,9.79
2022-11-07T20:32:30.932Z,10.03
2022-11-07T20:37:22.738Z,10.11
2022-11-07T20:42:14.479Z,11.04
2022-11-07T20:47:06.106Z,9.57
2022-11-07T20:51:58.369Z,11.18
2022-11-07T20:56:50.411Z,10.99
2022-11-07T21:01:42.464Z,10.68
2022-11-07T21:06:35.206Z,10.97
2022-11-07T21:11:28.335Z,9.09
2022-11-07T21:16:21.849Z,10.41
2022-11-07T21:21:16.551Z,11.33
2022-11-07T21:26:11.615Z,8.34
2022-11-07T21:31:05.886Z,10.29
2022-11-07T21:35:57.623Z,11.52
2022-11-07T21:40:49.484Z,9.17
2022-11-07T21:45:41.126Z,10.64
2022-11-07T21:50:44.778Z,11.11
2022-11-07T21:55:37.196Z,10.68
2022-11-07T22:00:33.119Z,10.16
2022-11-07T22:05:27.693Z,8.73
2022-11-07T22:10:19.300Z,9.87
2022-11-07T22:15:11.050Z,10.36
2022-11-07T22:20:02.675Z,9.96
2022-11-07T22:24:54.340Z,7.66
2022-11-07T22:29:46.895Z,8.37
2022-11-07T22:34:38.586Z,10.26
2022-11-07T22:39:30.179Z,9.37
2022-11-07T22:44:21.853Z,9.85
2022-11-07T22:49:13.489Z,10.34
2022-11-07T22:54:08.035Z,7.28
2022-11-07T22:58:59.989Z,8.19
2022-11-07T23:03:53.062Z,10.33
2022-11-07T23:08:45.046Z,10.77
2022-11-07T23:13:36.690Z,10.70
2022-11-07T23:18:28.319Z,9.76
2022-11-07T23:23:19.968Z,8.64
2022-11-07T23:28:11.570Z,8.22
2022-11-07T23:33:03.391Z,8.68
2022-11-07T23:37:54.966Z,7.90
2022-11-07T23:42:46.748Z,9.83
2022-11-07T23:47:57.034Z,9.22
2022-11-07T23:52:48.666Z,9.91
2022-11-07T23:57:59.028Z,8.49
